Time;durP1;ratioP1;P1;durP2;ratioP2;P2;SDS_P1;SDS_P2;PMS_P1;PMS_P2;Temp;Humidity;BMP_temperature;BMP_pressure;BME280_temperature;BME280_humidity;BME280_pressure;Samples;Min_cycle;Max_cycle;Signal;HPM_P1;HPM_P2
2023/02/01 00:00:23;;;;;;;23.73;16.80;;;4.50;79.20;;;;;;5081282;28;20024;-58
2023/02/01 00:02:49;;;;;;;24.88;18.45;;;4.50;79.30;;;;;;5081850;28;20036;-57
2023/02/01 00:05:15;;;;;;;21.63;15.95;;;4.50;79.30;;;;;;5073868;28;20035;-57
2023/02/01 00:07:40;;;;;;;23.20;16.45;;;4.50;79.40;;;;;;5082112;28;20426;-55
2023/02/01 00:10:07;;;;;;;25.38;17.10;;;4.50;79.40;;;;;;5090948;28;20037;-58
2023/02/01 00:12:33;;;;;;;23.45;16.33;;;4.50;79.50;;;;;;5094699;28;20028;-57
2023/02/01 00:14:59;;;;;;;24.88;17.15;;;4.50;79.50;;;;;;5095544;28;20454;-58
2023/02/01 00:17:24;;;;;;;24.00;16.58;;;4.50;79.60;;;;;;5100570;28;20766;-61
2023/02/01 00:19:50;;;;;;;23.02;17.13;;;4.50;79.70;;;;;;5091783;28;20390;-62
2023/02/01 00:22:16;;;;;;;26.92;17.27;;;4.60;79.60;;;;;;5083047;28;20499;-57
2023/02/01 00:24:42;;;;;;;22.13;15.80;;;4.60;79.70;;;;;;5096291;28;20047;-57
2023/02/01 00:27:08;;;;;;;22.10;16.52;;;4.60;79.70;;;;;;5090982;28;20032;-57
2023/02/01 00:29:33;;;;;;;22.52;16.73;;;4.60;79.70;;;;;;5091903;28;20132;-55
2023/02/01 00:31:59;;;;;;;22.77;16.02;;;4.50;79.60;;;;;;5091255;28;20034;-64
2023/02/01 00:34:24;;;;;;;23.40;16.40;;;4.50;79.60;;;;;;5089939;28;20104;-64
2023/02/01 00:36:50;;;;;;;21.42;16.38;;;4.50;79.70;;;;;;5091789;28;20071;-58
2023/02/01 00:39:16;;;;;;;19.52;15.70;;;4.50;79.90;;;;;;5083330;28;20385;-57
2023/02/01 00:41:42;;;;;;;22.40;15.95;;;4.40;79.90;;;;;;5087063;28;20035;-63
2023/02/01 00:44:08;;;;;;;18.27;15.00;;;4.40;80.10;;;;;;5092152;28;20126;-62
2023/02/01 00:46:33;;;;;;;21.25;15.25;;;4.40;80.20;;;;;;5094900;28;20024;-63
2023/02/01 00:48:59;;;;;;;21.38;15.15;;;4.40;80.50;;;;;;5092450;28;20024;-64
2023/02/01 00:51:27;;;;;;;22.95;14.90;;;4.40;80.70;;;;;;5079990;28;20036;-59
2023/02/01 00:53:53;;;;;;;20.05;14.75;;;4.50;80.50;;;;;;5094257;28;20032;-60
2023/02/01 00:56:20;;;;;;;22.33;15.73;;;4.50;80.40;;;;;;5086228;28;20044;-63
2023/02/01 00:58:46;;;;;;;18.90;14.23;;;4.50;80.60;;;;;;5102655;28;20043;-62
2023/02/01 01:01:15;;;;;;;20.02;15.27;;;4.50;80.40;;;;;;5089880;28;20039;-62
2023/02/01 01:03:42;;;;;;;22.00;14.63;;;4.60;80.30;;;;;;5090813;28;20024;-63
2023/02/01 01:06:14;;;;;;;22.77;15.73;;;4.60;80.30;;;;;;5088938;28;20146;-53
2023/02/01 01:08:40;;;;;;;;;;;4.60;80.20;;;;;;5079697;28;20042;-55
2023/02/01 01:11:11;;;;;;;16.75;12.93;;;4.60;80.10;;;;;;5085560;28;19993;-60
2023/02/01 01:13:36;;;;;;;18.83;13.13;;;4.70;80.10;;;;;;5085169;28;20028;-61
2023/02/01 01:16:04;;;;;;;17.58;12.35;;;4.80;80.00;;;;;;5091187;28;20291;-63
2023/02/01 01:18:31;;;;;;;19.52;14.18;;;4.80;79.80;;;;;;5073765;28;20044;-64
2023/02/01 01:20:57;;;;;;;18.30;12.52;;;4.80;79.60;;;;;;5070281;28;20050;-60
2023/02/01 01:23:23;;;;;;;18.92;13.35;;;4.90;79.50;;;;;;5090638;28;20359;-60
2023/02/01 01:25:49;;;;;;;17.63;13.02;;;4.90;79.20;;;;;;5081751;28;20046;-63
2023/02/01 01:28:14;;;;;;;17.20;12.40;;;4.90;79.20;;;;;;5092928;28;20538;-63
2023/02/01 01:30:40;;;;;;;18.10;12.82;;;5.00;79.30;;;;;;5103540;28;20027;-64
2023/02/01 01:33:06;;;;;;;19.02;13.23;;;5.00;79.30;;;;;;5091573;28;20441;-64
2023/02/01 01:35:32;;;;;;;20.05;13.18;;;5.00;79.30;;;;;;5095009;28;20138;-64
2023/02/01 01:37:59;;;;;;;16.48;12.55;;;5.10;79.20;;;;;;5079418;28;20032;-64
2023/02/01 01:40:26;;;;;;;16.95;12.90;;;5.10;79.20;;;;;;5081618;28;20039;-60
2023/02/01 01:42:54;;;;;;;18.42;11.70;;;5.10;79.10;;;;;;5084917;28;20023;-60
2023/02/01 01:45:28;;;;;;;17.80;12.38;;;5.10;79.10;;;;;;5084026;28;20382;-59
2023/02/01 01:48:04;;;;;;;17.33;11.20;;;5.10;79.10;;;;;;5098468;28;20368;-60
2023/02/01 01:50:44;;;;;;;14.70;11.43;;;5.10;79.70;;;;;;5089599;28;20024;-58
2023/02/01 01:53:13;;;;;;;16.98;11.45;;;5.10;79.00;;;;;;5105047;28;20052;-55
2023/02/01 01:55:43;;;;;;;16.95;12.13;;;5.20;79.10;;;;;;5090808;28;20040;-64
2023/02/01 01:58:15;;;;;;;15.75;11.40;;;5.20;79.00;;;;;;5098045;28;20048;-64
2023/02/01 02:00:41;;;;;;;13.82;11.23;;;5.20;79.00;;;;;;5077350;28;20067;-64
2023/02/01 02:03:14;;;;;;;14.32;10.60;;;5.20;78.90;;;;;;5093157;28;20035;-64
2023/02/01 02:05:41;;;;;;;16.17;10.95;;;5.20;78.80;;;;;;5098703;28;20382;-62
2023/02/01 02:08:07;;;;;;;13.63;9.88;;;5.30;78.70;;;;;;5095273;28;20077;-61
2023/02/01 02:11:15;;;;;;;15.75;11.07;;;5.30;78.60;;;;;;5096844;28;20461;-63
2023/02/01 02:13:22;;;;;;;11.63;9.60;;;5.30;78.60;;;;;;5073558;28;20123;-62
2023/02/01 02:16:29;;;;;;;14.00;10.52;;;5.30;78.50;;;;;;5090260;28;20036;-63
2023/02/01 02:19:28;;;;;;;14.30;10.18;;;5.30;78.40;;;;;;5070591;28;20052;-63
2023/02/01 02:22:24;;;;;;;14.20;10.52;;;5.30;78.30;;;;;;5089409;28;20055;-59
2023/02/01 02:25:31;;;;;;;14.07;9.80;;;5.30;78.20;;;;;;5086194;28;20512;-58
2023/02/01 02:28:13;;;;;;;12.65;9.07;;;5.30;78.10;;;;;;5085805;28;20032;-63
2023/02/01 02:31:07;;;;;;;13.23;9.50;;;5.30;78.20;;;;;;5092476;28;20035;-63
2023/02/01 02:33:47;;;;;;;15.55;10.43;;;5.30;78.20;;;;;;5091816;28;20353;-63
2023/02/01 02:36:23;;;;;;;10.52;7.95;;;5.30;78.20;;;;;;5089995;28;20032;-62
2023/02/01 02:39:03;;;;;;;12.48;8.90;;;5.30;78.20;;;;;;5094811;28;20089;-62
2023/02/01 02:47:33;;;;;;;11.40;7.93;;;5.40;78.10;;;;;;5087747;28;20078;-61
2023/02/01 03:04:38;;;;;;;11.60;8.07;;;5.40;77.90;;;;;;5091203;28;20051;-61
2023/02/01 03:07:34;;;;;;;10.90;8.05;;;5.30;77.80;;;;;;5079354;28;20386;-50
2023/02/01 03:10:05;;;;;;;9.52;7.60;;;5.20;78.10;;;;;;5090331;28;20036;-50
2023/02/01 03:15:22;;;;;;;9.10;7.10;;;5.20;78.30;;;;;;5104027;28;20188;-64
2023/02/01 03:17:49;;;;;;;8.95;7.10;;;5.10;78.30;;;;;;5099877;28;20069;-64
2023/02/01 03:20:19;;;;;;;9.77;7.45;;;5.10;78.50;;;;;;5089503;28;20555;-64
2023/02/01 03:22:47;;;;;;;9.55;7.18;;;5.00;78.70;;;;;;5093841;28;20032;-62
2023/02/01 03:25:21;;;;;;;9.77;7.60;;;4.90;78.80;;;;;;5095185;28;20032;-63
2023/02/01 03:27:57;;;;;;;11.55;8.15;;;4.90;79.00;;;;;;5084899;28;20048;-64
2023/02/01 03:30:36;;;;;;;10.65;7.63;;;4.80;79.10;;;;;;5096382;28;20031;-60
2023/02/01 03:33:13;;;;;;;11.57;7.60;;;4.70;79.30;;;;;;5086836;28;20370;-64
2023/02/01 03:36:00;;;;;;;9.57;7.53;;;4.70;79.70;;;;;;5086414;28;20044;-62
2023/02/01 03:38:50;;;;;;;9.18;7.35;;;4.70;80.00;;;;;;5077460;28;20028;-63
2023/02/01 03:41:19;;;;;;;10.10;7.13;;;4.70;79.80;;;;;;5079303;28;20088;-56
2023/02/01 03:43:55;;;;;;;8.00;6.45;;;4.80;79.90;;;;;;5086998;28;20146;-57
2023/02/01 03:46:35;;;;;;;10.65;6.88;;;4.90;79.80;;;;;;5077211;28;20375;-56
2023/02/01 03:49:17;;;;;;;10.90;7.50;;;4.90;79.40;;;;;;5090323;28;20031;-55
2023/02/01 03:51:42;;;;;;;8.77;7.03;;;4.90;79.40;;;;;;5100525;28;20047;-62
2023/02/01 03:54:13;;;;;;;10.60;7.00;;;4.90;79.50;;;;;;5079016;28;20033;-62
2023/02/01 03:56:43;;;;;;;9.50;7.22;;;4.90;79.40;;;;;;5077297;28;20087;-60
2023/02/01 03:59:10;;;;;;;8.87;6.67;;;4.90;79.50;;;;;;5078807;28;20040;-60
2023/02/01 04:01:36;;;;;;;9.13;6.65;;;4.80;79.30;;;;;;5078497;28;20051;-61
2023/02/01 04:04:01;;;;;;;10.43;7.10;;;4.80;79.50;;;;;;5089997;28;20032;-60
2023/02/01 04:06:27;;;;;;;9.38;7.03;;;4.80;79.70;;;;;;5096938;28;20039;-63
2023/02/01 04:08:53;;;;;;;9.88;7.10;;;4.80;79.70;;;;;;5092936;28;20032;-62
2023/02/01 04:11:18;;;;;;;8.23;6.47;;;4.80;79.60;;;;;;5103659;28;20165;-57
2023/02/01 04:13:44;;;;;;;10.30;7.40;;;4.80;79.70;;;;;;5088050;28;20063;-56
2023/02/01 04:16:10;;;;;;;11.48;6.82;;;4.80;79.80;;;;;;5097983;28;20482;-63
2023/02/01 04:18:36;;;;;;;8.32;6.85;;;4.80;79.70;;;;;;5094509;28;20991;-63
2023/02/01 04:21:02;;;;;;;8.73;7.10;;;4.80;79.60;;;;;;5083654;28;20651;-61
2023/02/01 04:23:28;;;;;;;9.60;6.93;;;4.90;79.50;;;;;;5081949;28;20038;-61
2023/02/01 04:25:58;;;;;;;7.65;6.10;;;4.90;79.50;;;;;;5078469;28;20035;-61
2023/02/01 04:28:23;;;;;;;8.48;6.15;;;4.80;79.50;;;;;;5082120;28;20032;-61
2023/02/01 04:30:49;;;;;;;9.88;6.65;;;4.80;79.40;;;;;;5098017;28;20146;-54
2023/02/01 04:33:15;;;;;;;10.30;7.05;;;4.80;79.50;;;;;;5092701;28;20031;-55
2023/02/01 04:35:41;;;;;;;8.57;6.03;;;4.80;79.60;;;;;;5101197;28;20040;-53
2023/02/01 04:38:06;;;;;;;10.40;6.90;;;4.90;79.50;;;;;;5087843;28;20509;-57
2023/02/01 04:40:32;;;;;;;8.40;6.30;;;4.90;79.20;;;;;;5083675;28;20400;-60
2023/02/01 04:43:00;;;;;;;9.10;7.18;;;4.90;79.10;;;;;;5092163;28;20031;-60
2023/02/01 04:45:25;;;;;;;10.18;6.50;;;4.90;79.00;;;;;;5094186;28;20035;-62
2023/02/01 04:47:51;;;;;;;9.10;6.43;;;5.00;78.90;;;;;;5099986;28;20028;-63
2023/02/01 04:50:17;;;;;;;7.93;6.53;;;5.00;78.80;;;;;;5103736;28;20090;-64
2023/02/01 04:52:45;;;;;;;9.85;6.28;;;5.00;78.60;;;;;;5098210;28;20028;-62
2023/02/01 04:55:10;;;;;;;9.55;6.30;;;5.00;78.60;;;;;;5084129;28;20413;-63
2023/02/01 04:57:38;;;;;;;9.27;6.38;;;4.90;78.50;;;;;;5093819;28;20032;-60
2023/02/01 05:00:08;;;;;;;9.65;6.70;;;4.90;78.90;;;;;;5104074;28;20323;-60
2023/02/01 05:02:34;;;;;;;10.05;6.40;;;4.90;79.00;;;;;;5098642;28;20114;-60
2023/02/01 05:05:00;;;;;;;9.30;6.63;;;4.80;79.00;;;;;;5079121;28;20104;-61
2023/02/01 05:07:26;;;;;;;9.00;6.72;;;4.90;78.90;;;;;;5097453;28;20111;-62
2023/02/01 05:09:52;;;;;;;7.65;6.28;;;4.90;78.80;;;;;;5093602;28;20036;-62
2023/02/01 05:15:02;;;;;;;8.23;6.53;;;4.90;78.60;;;;;;5085491;28;20059;-61
2023/02/01 05:17:27;;;;;;;9.18;7.07;;;4.90;79.30;;;;;;5086714;28;20055;-62
2023/02/01 05:19:53;;;;;;;8.85;7.63;;;4.90;78.50;;;;;;5104616;28;20081;-63
2023/02/01 05:22:19;;;;;;;9.68;7.63;;;4.90;78.30;;;;;;5072712;28;20037;-60
2023/02/01 05:24:44;;;;;;;10.85;7.75;;;5.00;78.20;;;;;;5080757;28;20032;-60
2023/02/01 05:27:10;;;;;;;9.07;6.93;;;5.00;78.10;;;;;;5082523;28;20071;-55
2023/02/01 05:29:35;;;;;;;9.05;7.05;;;5.00;78.00;;;;;;5082068;28;20060;-52
2023/02/01 05:32:01;;;;;;;10.80;7.45;;;5.00;77.90;;;;;;5062352;28;20033;-55
2023/02/01 05:34:27;;;;;;;11.02;7.82;;;5.10;78.00;;;;;;5083838;28;20462;-52
2023/02/01 05:36:53;;;;;;;10.40;8.07;;;5.10;77.70;;;;;;5080636;28;20122;-52
2023/02/01 05:39:18;;;;;;;9.75;7.18;;;5.10;77.60;;;;;;5091608;28;20359;-55
2023/02/01 05:41:44;;;;;;;9.43;6.97;;;5.10;77.50;;;;;;5105159;28;20036;-60
2023/02/01 05:44:11;;;;;;;7.82;6.07;;;5.10;77.50;;;;;;5092273;28;20033;-61
2023/02/01 05:46:36;;;;;;;8.05;6.40;;;5.20;77.50;;;;;;5088685;28;20040;-53
2023/02/01 05:49:03;;;;;;;9.82;6.00;;;5.20;77.30;;;;;;5085186;28;20054;-56
2023/02/01 05:51:28;;;;;;;10.10;6.82;;;5.20;77.20;;;;;;5081048;28;20091;-61
2023/02/01 05:53:54;;;;;;;8.35;6.35;;;5.20;76.90;;;;;;5088839;28;20541;-60
2023/02/01 05:56:19;;;;;;;9.77;6.75;;;5.20;76.90;;;;;;5089625;28;20489;-53
2023/02/01 05:58:45;;;;;;;9.65;6.72;;;5.10;77.00;;;;;;5090711;28;20056;-55
2023/02/01 06:01:11;;;;;;;9.02;6.90;;;5.10;77.00;;;;;;5085379;28;20496;-50
2023/02/01 06:03:37;;;;;;;8.50;6.43;;;5.10;77.20;;;;;;5078231;28;20114;-53
2023/02/01 06:06:03;;;;;;;10.73;6.85;;;5.10;77.10;;;;;;5094893;28;20035;-63
2023/02/01 06:08:29;;;;;;;9.75;6.88;;;5.00;77.00;;;;;;5100207;28;20066;-63
2023/02/01 06:11:03;;;;;;;11.00;7.10;;;5.00;77.10;;;;;;5075889;28;20051;-53
2023/02/01 06:13:28;;;;;;;8.13;6.13;;;5.10;77.20;;;;;;5083581;28;20121;-52
2023/02/01 06:15:55;;;;;;;8.38;6.43;;;5.10;77.20;;;;;;5080418;28;20047;-61
2023/02/01 06:18:21;;;;;;;8.20;6.03;;;5.10;77.10;;;;;;5082743;28;20425;-60
2023/02/01 06:20:55;;;;;;;9.73;7.03;;;5.20;77.00;;;;;;5085538;28;20062;-60
2023/02/01 06:23:23;;;;;;;8.32;6.80;;;5.20;76.80;;;;;;5089962;28;20534;-60
2023/02/01 06:25:50;;;;;;;9.48;6.90;;;5.30;76.80;;;;;;5081937;28;20062;-59
2023/02/01 06:28:16;;;;;;;10.48;6.35;;;5.30;76.60;;;;;;5093643;28;20031;-61
2023/02/01 06:30:45;;;;;;;9.85;6.75;;;5.30;76.50;;;;;;5083042;28;20055;-64
2023/02/01 06:33:17;;;;;;;9.23;7.03;;;5.40;76.50;;;;;;5077028;28;20024;-64
2023/02/01 06:35:46;;;;;;;10.32;6.72;;;5.40;76.30;;;;;;5085443;28;20036;-62
2023/02/01 06:38:13;;;;;;;11.50;7.15;;;5.40;76.00;;;;;;5077698;28;20036;-64
2023/02/01 06:40:39;;;;;;;8.75;6.85;;;5.40;76.00;;;;;;5076722;28;20032;-62
2023/02/01 06:43:05;;;;;;;8.77;6.93;;;5.30;75.90;;;;;;5090101;28;20089;-63
2023/02/01 06:45:31;;;;;;;9.85;6.93;;;5.30;76.00;;;;;;5071557;28;20090;-61
2023/02/01 06:47:57;;;;;;;8.43;6.50;;;5.20;76.10;;;;;;5092242;28;20035;-61
2023/02/01 06:50:23;;;;;;;10.50;6.85;;;5.10;76.30;;;;;;5087437;28;20033;-59
2023/02/01 06:52:49;;;;;;;10.18;7.35;;;5.10;77.00;;;;;;5088457;28;20050;-61
2023/02/01 06:55:14;;;;;;;10.02;7.80;;;5.00;76.40;;;;;;5080886;28;20119;-61
2023/02/01 06:57:40;;;;;;;9.00;6.93;;;5.00;76.50;;;;;;5081220;28;20029;-59
2023/02/01 07:00:06;;;;;;;9.98;7.10;;;5.00;76.40;;;;;;5079296;28;20284;-59
2023/02/01 07:02:33;;;;;;;11.27;7.65;;;5.00;76.20;;;;;;5079005;28;20481;-60
2023/02/01 07:04:58;;;;;;;13.85;7.97;;;4.90;76.20;;;;;;5079098;28;20115;-60
2023/02/01 07:07:24;;;;;;;12.50;8.18;;;4.90;76.40;;;;;;5071667;28;22466;-60
2023/02/01 07:09:50;;;;;;;12.10;8.65;;;4.90;76.50;;;;;;5083546;28;20025;-60
2023/02/01 07:12:16;;;;;;;11.43;8.52;;;4.80;76.50;;;;;;5075605;28;20079;-62
2023/02/01 07:14:41;;;;;;;9.52;8.10;;;4.80;76.60;;;;;;5081886;28;20150;-61
2023/02/01 07:17:07;;;;;;;12.70;8.85;;;4.80;76.80;;;;;;5078330;28;20054;-61
2023/02/01 07:19:33;;;;;;;15.27;10.20;;;4.70;76.80;;;;;;5076461;28;20085;-61
2023/02/01 07:21:58;;;;;;;14.75;10.82;;;4.70;76.90;;;;;;5078653;28;20048;-60
2023/02/01 07:24:24;;;;;;;14.82;10.70;;;4.70;76.90;;;;;;5072121;28;20032;-61
2023/02/01 07:26:50;;;;;;;16.25;10.90;;;4.70;77.00;;;;;;5066758;28;20128;-61
2023/02/01 07:29:17;;;;;;;16.90;11.63;;;4.80;77.10;;;;;;5076542;28;20032;-62
2023/02/01 07:31:43;;;;;;;14.23;9.88;;;4.80;77.00;;;;;;5067061;28;20736;-62
2023/02/01 07:34:08;;;;;;;15.55;10.77;;;4.80;77.00;;;;;;5062151;28;20036;-61
2023/02/01 07:36:36;;;;;;;17.42;11.45;;;4.80;76.90;;;;;;5064212;28;20455;-61
2023/02/01 07:39:04;;;;;;;15.77;11.00;;;4.80;77.00;;;;;;5073059;28;20123;-62
2023/02/01 07:41:30;;;;;;;14.95;10.90;;;4.80;77.10;;;;;;5076114;28;20028;-61
2023/02/01 07:43:56;;;;;;;18.27;11.38;;;4.90;77.10;;;;;;5071730;28;22857;-60
2023/02/01 07:46:22;;;;;;;16.48;11.15;;;5.00;77.10;;;;;;5075806;28;20032;-60
2023/02/01 07:48:48;;;;;;;14.25;10.98;;;5.00;77.00;;;;;;5072303;28;20039;-61
2023/02/01 07:51:16;;;;;;;16.17;11.07;;;5.20;77.50;;;;;;5074787;28;20060;-61
2023/02/01 07:53:42;;;;;;;14.65;11.35;;;5.30;76.70;;;;;;5071566;28;21713;-59
2023/02/01 07:56:13;;;;;;;13.57;9.65;;;5.40;76.50;;;;;;5073319;28;20078;-62
2023/02/01 07:58:39;;;;;;;15.80;9.80;;;5.40;76.40;;;;;;5064827;28;20034;-61
2023/02/01 08:01:20;;;;;;;12.77;9.60;;;5.40;76.20;;;;;;5057577;28;20043;-60
2023/02/01 08:04:00;;;;;;;14.93;10.18;;;5.50;76.30;;;;;;5059530;28;20041;-62
2023/02/01 08:06:27;;;;;;;14.05;10.05;;;5.60;76.40;;;;;;5048961;28;20130;-61
2023/02/01 08:08:53;;;;;;;12.80;9.88;;;5.60;76.60;;;;;;5066748;28;20035;-62
2023/02/01 08:11:22;;;;;;;13.23;10.30;;;5.70;76.40;;;;;;5072769;28;20462;-62
2023/02/01 08:13:48;;;;;;;12.32;9.75;;;5.70;76.20;;;;;;5062730;28;21095;-60
2023/02/01 08:16:15;;;;;;;13.88;9.93;;;5.70;76.20;;;;;;5055661;28;20105;-61
2023/02/01 08:18:42;;;;;;;11.90;9.38;;;5.80;76.00;;;;;;5066675;28;20039;-60
2023/02/01 08:21:19;;;;;;;13.27;9.73;;;5.90;75.90;;;;;;5040004;28;20032;-59
2023/02/01 08:23:46;;;;;;;13.38;9.70;;;5.90;75.80;;;;;;5046101;28;20040;-62
2023/02/01 08:26:16;;;;;;;14.73;10.00;;;5.90;76.00;;;;;;5064389;28;20036;-63
2023/02/01 08:28:44;;;;;;;14.52;9.85;;;6.00;75.80;;;;;;5078749;28;20048;-61
2023/02/01 08:31:16;;;;;;;11.77;8.43;;;6.10;75.80;;;;;;5056098;28;20028;-61
2023/02/01 08:33:44;;;;;;;13.32;8.45;;;6.10;75.60;;;;;;5058031;28;20042;-65
2023/02/01 08:36:11;;;;;;;10.50;7.97;;;6.20;75.40;;;;;;5067280;28;20068;-64
2023/02/01 08:38:39;;;;;;;11.70;9.35;;;6.30;75.00;;;;;;5058811;28;20036;-60
2023/02/01 08:41:09;;;;;;;16.80;10.93;;;6.40;74.80;;;;;;5062883;28;20040;-62
2023/02/01 08:43:35;;;;;;;13.98;10.52;;;6.50;74.40;;;;;;5063715;28;20024;-61
2023/02/01 08:46:02;;;;;;;18.60;12.60;;;6.50;74.10;;;;;;5060929;28;20385;-62
2023/02/01 08:48:28;;;;;;;18.20;12.88;;;6.60;73.90;;;;;;5072825;28;20032;-64
2023/02/01 08:50:54;;;;;;;21.05;14.80;;;6.60;73.60;;;;;;5067141;28;20031;-59
2023/02/01 08:53:20;;;;;;;17.88;13.60;;;6.70;73.40;;;;;;5063912;28;20036;-60
2023/02/01 08:55:46;;;;;;;19.23;13.57;;;6.70;73.00;;;;;;5066346;28;20101;-62
2023/02/01 08:58:13;;;;;;;15.50;13.05;;;6.70;72.90;;;;;;5061689;28;20070;-59
2023/02/01 09:00:40;;;;;;;18.25;12.35;;;6.70;72.80;;;;;;5062228;28;20406;-61
2023/02/01 09:03:08;;;;;;;16.55;11.93;;;6.60;73.10;;;;;;5063769;28;20913;-62
2023/02/01 09:05:34;;;;;;;18.20;12.98;;;6.50;73.90;;;;;;5069953;28;20032;-61
2023/02/01 09:08:00;;;;;;;18.00;12.65;;;6.50;73.50;;;;;;5064650;28;20027;-64
2023/02/01 09:10:26;;;;;;;18.20;12.60;;;6.40;73.80;;;;;;5067843;28;20031;-62
2023/02/01 09:12:52;;;;;;;18.08;12.48;;;6.40;73.90;;;;;;5065953;28;20028;-62
2023/02/01 09:15:17;;;;;;;17.38;11.63;;;6.50;73.70;;;;;;5065617;28;20063;-61
2023/02/01 09:17:43;;;;;;;18.55;13.02;;;6.50;73.60;;;;;;5064009;28;20035;-63
2023/02/01 09:20:09;;;;;;;19.05;12.57;;;6.60;73.30;;;;;;5052758;28;20032;-61
2023/02/01 09:22:35;;;;;;;17.30;11.77;;;6.60;72.90;;;;;;5055478;28;20473;-62
2023/02/01 09:25:00;;;;;;;16.38;11.77;;;6.70;72.70;;;;;;5058639;28;20035;-61
2023/02/01 09:27:26;;;;;;;16.60;11.82;;;6.80;72.70;;;;;;5058137;28;20051;-62
2023/02/01 09:29:52;;;;;;;13.30;10.20;;;6.80;72.70;;;;;;5059615;28;20059;-61
2023/02/01 09:32:22;;;;;;;15.63;10.77;;;6.90;72.60;;;;;;5051038;28;20584;-61
2023/02/01 09:34:52;;;;;;;13.65;10.23;;;6.90;72.60;;;;;;5059062;28;21064;-64
2023/02/01 09:37:19;;;;;;;14.30;10.23;;;6.90;72.80;;;;;;5068448;28;20068;-63
2023/02/01 09:39:45;;;;;;;14.80;10.80;;;6.90;72.70;;;;;;5065405;28;20165;-62
2023/02/01 09:42:32;;;;;;;12.73;10.43;;;6.90;72.70;;;;;;5065437;28;20538;-60
2023/02/01 09:45:07;;;;;;;15.85;11.93;;;6.90;72.70;;;;;;5063191;28;20035;-59
2023/02/01 09:47:34;;;;;;;16.83;12.30;;;6.90;72.90;;;;;;5059091;28;20037;-60
2023/02/01 09:50:03;;;;;;;17.70;12.35;;;6.90;73.00;;;;;;5062018;28;20040;-61
2023/02/01 09:52:44;;;;;;;18.50;10.93;;;6.90;72.60;;;;;;5053993;28;20151;-60
2023/02/01 09:55:42;;;;;;;16.77;11.13;;;7.00;72.50;;;;;;5056395;28;20058;-59
2023/02/01 09:58:32;;;;;;;12.73;10.02;;;7.10;72.60;;;;;;5049041;28;20039;-61
2023/02/01 10:01:00;;;;;;;13.60;10.80;;;7.10;72.20;;;;;;5052477;28;20437;-61
2023/02/01 10:03:32;;;;;;;15.43;11.32;;;7.10;71.90;;;;;;5032990;28;20036;-62
2023/02/01 10:06:19;;;;;;;15.00;11.38;;;7.10;71.70;;;;;;5064565;28;20493;-63
2023/02/01 10:09:16;;;;;;;17.45;13.18;;;7.00;71.80;;;;;;5061395;28;20033;-63
2023/02/01 10:11:55;;;;;;;15.20;11.43;;;6.90;71.90;;;;;;5065128;28;20036;-58
2023/02/01 10:14:23;;;;;;;17.30;11.88;;;6.80;72.20;;;;;;5063356;28;20028;-62
2023/02/01 10:16:55;;;;;;;14.88;11.13;;;6.80;72.30;;;;;;5062798;28;20086;-62
2023/02/01 10:19:35;;;;;;;12.80;9.77;;;6.90;72.50;;;;;;5054253;28;20121;-62
2023/02/01 10:22:07;;;;;;;15.02;10.82;;;6.90;72.30;;;;;;5056710;28;20059;-60
2023/02/01 10:24:39;;;;;;;12.20;8.80;;;6.90;72.30;;;;;;5052267;28;20040;-60
2023/02/01 10:27:34;;;;;;;11.10;8.40;;;6.90;71.90;;;;;;5062305;28;20069;-60
2023/02/01 10:30:09;;;;;;;10.75;8.15;;;6.80;72.10;;;;;;5063481;28;20041;-61
2023/02/01 10:32:35;;;;;;;11.52;8.70;;;6.80;72.00;;;;;;5057141;28;20331;-60
2023/02/01 10:35:23;;;;;;;14.93;9.90;;;6.70;72.10;;;;;;5056476;28;20114;-61
2023/02/01 10:37:50;;;;;;;11.38;9.45;;;6.60;72.30;;;;;;5062335;28;20036;-62
2023/02/01 10:40:25;;;;;;;12.48;9.35;;;6.60;72.40;;;;;;5053639;28;20040;-61
2023/02/01 10:43:01;;;;;;;14.43;9.98;;;6.70;72.20;;;;;;5056484;28;20031;-60
2023/02/01 10:45:29;;;;;;;10.75;9.00;;;6.70;72.00;;;;;;5059806;28;20020;-61
2023/02/01 10:47:58;;;;;;;12.90;9.20;;;6.80;72.00;;;;;;5058749;28;20092;-61
2023/02/01 10:50:49;;;;;;;12.23;9.38;;;6.80;71.80;;;;;;5058034;28;20029;-64
2023/02/01 10:53:20;;;;;;;11.30;8.83;;;6.70;71.50;;;;;;5053118;28;20143;-61
2023/02/01 10:55:50;;;;;;;11.65;8.85;;;6.70;71.70;;;;;;5037018;28;20289;-60
2023/02/01 10:58:20;;;;;;;11.02;8.45;;;6.70;71.70;;;;;;5057575;28;20030;-61
2023/02/01 11:01:09;;;;;;;15.40;8.57;;;6.60;71.80;;;;;;5069237;28;20040;-58
2023/02/01 11:03:43;;;;;;;10.60;7.63;;;6.60;71.90;;;;;;5031408;28;20041;-57
2023/02/01 11:06:26;;;;;;;11.02;7.80;;;6.50;72.20;;;;;;5053283;28;20089;-59
2023/02/01 11:08:57;;;;;;;11.25;8.07;;;6.50;72.10;;;;;;5067082;28;20055;-56
2023/02/01 11:11:24;;;;;;;12.32;7.72;;;6.50;72.00;;;;;;5065331;28;20042;-58
2023/02/01 11:14:00;;;;;;;9.55;7.10;;;6.50;71.80;;;;;;5064574;28;20417;-59
2023/02/01 11:16:49;;;;;;;11.10;6.05;;;6.50;71.70;;;;;;5069404;28;20090;-57
2023/02/01 11:19:17;;;;;;;9.73;6.15;;;6.60;71.50;;;;;;5061848;28;20730;-57
2023/02/01 11:21:44;;;;;;;9.60;6.75;;;6.60;71.40;;;;;;5077900;28;20026;-58
2023/02/01 11:24:32;;;;;;;8.15;5.95;;;6.70;71.30;;;;;;5064652;28;20061;-60
2023/02/01 11:27:01;;;;;;;8.57;6.63;;;6.70;71.00;;;;;;5060931;28;20028;-57
2023/02/01 11:29:37;;;;;;;11.07;6.75;;;6.70;71.10;;;;;;5068217;28;20736;-60
2023/02/01 11:32:04;;;;;;;9.45;6.50;;;6.70;70.80;;;;;;5061689;28;20032;-54
2023/02/01 11:34:41;;;;;;;8.80;7.07;;;6.70;70.90;;;;;;5065520;28;20036;-58
2023/02/01 11:37:19;;;;;;;10.68;7.07;;;6.80;70.90;;;;;;5055606;28;20036;-56
2023/02/01 11:40:16;;;;;;;10.55;7.07;;;6.80;71.00;;;;;;5059487;28;20850;-59
2023/02/01 11:43:15;;;;;;;9.98;6.93;;;6.80;70.90;;;;;;5051675;28;20040;-54
2023/02/01 11:45:41;;;;;;;8.40;6.20;;;6.80;70.50;;;;;;5038919;28;20024;-55
2023/02/01 11:48:15;;;;;;;9.50;6.63;;;6.80;70.50;;;;;;5055020;28;20544;-59
2023/02/01 11:51:13;;;;;;;13.13;7.35;;;6.80;70.40;;;;;;5057254;28;20895;-59
2023/02/01 11:54:02;;;;;;;7.75;6.43;;;6.90;70.40;;;;;;5060888;28;20061;-57
2023/02/01 11:56:36;;;;;;;9.75;6.78;;;6.90;70.20;;;;;;5039205;28;20482;-58
2023/02/01 11:59:23;;;;;;;10.23;6.53;;;6.90;70.00;;;;;;5048523;28;20036;-58
2023/02/01 12:02:10;;;;;;;9.77;6.50;;;6.90;69.90;;;;;;5052123;28;20040;-57
2023/02/01 12:05:01;;;;;;;9.55;5.68;;;6.90;69.70;;;;;;5062455;28;20038;-61
2023/02/01 12:08:05;;;;;;;7.57;5.80;;;6.90;69.40;;;;;;5065837;28;20028;-57
2023/02/01 12:10:56;;;;;;;8.27;5.45;;;6.90;69.20;;;;;;5066402;28;20055;-60
2023/02/01 12:13:44;;;;;;;7.25;5.65;;;6.90;69.20;;;;;;5070138;28;20038;-51
2023/02/01 12:16:46;;;;;;;7.65;5.65;;;6.90;69.00;;;;;;5064124;28;20032;-59
2023/02/01 12:19:50;;;;;;;9.45;5.47;;;7.00;69.10;;;;;;5067354;28;20020;-54
2023/02/01 12:22:38;;;;;;;8.02;5.03;;;7.00;68.80;;;;;;5025856;28;20041;-51
2023/02/01 12:25:25;;;;;;;7.80;5.68;;;7.10;68.30;;;;;;5067405;28;20630;-54
2023/02/01 12:28:18;;;;;;;7.25;5.00;;;7.20;68.00;;;;;;5074235;28;20144;-58
2023/02/01 12:31:14;;;;;;;6.47;4.60;;;7.20;67.70;;;;;;5066704;28;20036;-59
2023/02/01 12:33:58;;;;;;;5.75;4.53;;;7.30;67.40;;;;;;5064687;28;20156;-56
2023/02/01 12:36:39;;;;;;;5.40;4.35;;;7.30;67.40;;;;;;5054408;28;20351;-59
2023/02/01 12:39:32;;;;;;;6.25;4.53;;;7.40;67.10;;;;;;5068208;28;20033;-58
2023/02/01 12:42:13;;;;;;;5.85;4.72;;;7.40;66.90;;;;;;5068885;28;20564;-55
2023/02/01 12:45:01;;;;;;;8.25;4.85;;;7.50;66.90;;;;;;5063311;28;20033;-57
2023/02/01 12:47:33;;;;;;;5.03;4.07;;;7.60;66.80;;;;;;5071744;28;20028;-55
2023/02/01 12:50:21;;;;;;;7.32;4.25;;;7.60;66.70;;;;;;5073925;28;20032;-54
2023/02/01 12:52:52;;;;;;;4.85;4.05;;;7.70;66.50;;;;;;5064159;28;21036;-55
2023/02/01 12:55:36;;;;;;;7.40;4.63;;;7.70;66.00;;;;;;5070808;28;20115;-60
2023/02/01 12:58:17;;;;;;;6.93;4.50;;;7.60;66.00;;;;;;5069084;28;20047;-59
2023/02/01 13:01:08;;;;;;;7.53;5.28;;;7.50;65.70;;;;;;5063522;28;20060;-58
2023/02/01 13:03:59;;;;;;;7.13;5.00;;;7.40;65.80;;;;;;5052625;28;20036;-56
2023/02/01 13:06:28;;;;;;;6.70;4.78;;;7.40;65.90;;;;;;5045630;28;20028;-60
2023/02/01 13:09:02;;;;;;;8.63;5.00;;;7.30;66.00;;;;;;5049246;28;20123;-59
2023/02/01 13:11:39;;;;;;;8.00;5.30;;;7.30;66.10;;;;;;5051362;28;20032;-57
2023/02/01 13:14:07;;;;;;;7.03;5.47;;;7.30;65.80;;;;;;5057071;28;20426;-57
2023/02/01 13:16:47;;;;;;;6.95;5.63;;;7.20;65.70;;;;;;5055832;28;20067;-58
2023/02/01 13:19:25;;;;;;;9.57;6.53;;;7.20;65.90;;;;;;5062848;28;20040;-55
2023/02/01 13:21:55;;;;;;;10.48;5.80;;;7.10;65.80;;;;;;5061177;28;20055;-57
2023/02/01 13:24:32;;;;;;;10.10;5.78;;;7.20;66.00;;;;;;5058964;28;20085;-56
2023/02/01 13:26:59;;;;;;;8.27;5.45;;;7.20;65.90;;;;;;5064116;28;20085;-58
2023/02/01 13:29:26;;;;;;;8.15;5.75;;;7.20;65.80;;;;;;5067353;28;20024;-59
2023/02/01 13:32:34;;;;;;;9.32;6.45;;;7.20;65.90;;;;;;5067970;28;20092;-57
2023/02/01 13:35:18;;;;;;;7.03;5.22;;;7.30;65.80;;;;;;4961829;28;20453;-58
2023/02/01 13:37:53;;;;;;;7.30;5.22;;;7.30;65.80;;;;;;5061081;28;20056;-60